Pagina principale
METAR-TAF:

METAR-TAF

Aeroporti :

Aeroporto di Cagliari-Elmas

Cagliari, Italia

latitudine: 39-15N, longitudine: 009-04E, altezza: 4 m

Osservazione

Il bollettino è stato emesso 31 minuti fa, alle 12:50 UTC
Vento 13 kt da ovest
Temperature 22°C
Umidità 65%
Pressione 1004 hPa
Visibilità 10 km o più
Poco nuvoloso ad un'altezza di 3500 ft
Nubi sparse ad un'altezza di 5500 ft

METAR: LIEE 271250Z 28013KT 9999 FEW035 SCT055 22/15 Q1004

Ora: 15:21 (13:21 UTC)

Previsione

Il bollettino è stato emesso 2 ore e 21 minuti fa, alle 11:00 UTC
Previsione valida dal 27 alle 12 UTC al 28 alle 12 UTC
Vento 15 kt da nord/nord-ovest
Visibilità: 8000 m
Nubi sparse ad un'altezza di 1500 ft
Nuvoloso ad un'altezza di 4000 ft
Temporaneamente
dal 27 alle 12 UTC al 27 alle 16 UTC
Visibilità: 4000 m
temporale, pioggia

TAF: LIEE 271100Z 2712/2812 33015KT 8000 SCT015 BKN040 TEMPO 2712/2716 4000 TSRA

Osservazioni e previsioni meteorologiche di più di 4000 aeroporti (messaggi METAR e TAF).

Le stazioni disponibili sono rappresentate dai dischi gialli e rossi sulla carta.

Puntare il mouse per vedere il nome della stazione.

Clicca sopra per visualizzare le osservazioni e previsioni meteorologiche.

Per cambiare la mappa : fare clic sui pulsanti verdi con una croce nera per ingrandire, il pulsante verde con un trattino per diminuire, o sulla freccia verde per le mappe adiacenti.


METAR-TAF: